createdAt,value
2019-05-02T00:01:58.230Z,8.10
2019-05-02T00:04:29.912Z,7.17
2019-05-02T00:07:05.624Z,7.00
2019-05-02T00:09:47.784Z,6.27
2019-05-02T00:12:15.816Z,7.20
2019-05-02T00:14:47.153Z,6.93
2019-05-02T00:17:20.252Z,6.50
2019-05-02T00:19:52.642Z,6.80
2019-05-02T00:22:23.695Z,6.53
2019-05-02T00:24:54.752Z,6.60
2019-05-02T00:27:25.919Z,6.97
2019-05-02T00:29:58.667Z,7.10
2019-05-02T00:32:29.714Z,6.37
2019-05-02T00:35:00.686Z,7.33
2019-05-02T00:37:31.657Z,6.43
2019-05-02T00:40:02.840Z,6.73
2019-05-02T00:42:33.927Z,6.43
2019-05-02T00:45:06.180Z,6.63
2019-05-02T00:47:47.906Z,5.80
2019-05-02T00:50:19.240Z,6.70
2019-05-02T00:52:50.460Z,6.03
2019-05-02T00:55:21.617Z,6.80
2019-05-02T00:57:55.735Z,6.60
2019-05-02T01:00:25.407Z,6.30
2019-05-02T01:03:00.724Z,6.10
2019-05-02T01:05:33.729Z,6.37
2019-05-02T01:08:05.318Z,6.57
2019-05-02T01:10:36.387Z,5.63
2019-05-02T01:13:07.523Z,6.17
2019-05-02T01:15:39.035Z,6.00
2019-05-02T01:18:11.163Z,5.73
2019-05-02T01:20:42.150Z,5.90
2019-05-02T01:23:13.217Z,6.27
2019-05-02T01:25:47.363Z,6.47
2019-05-02T01:28:35.842Z,6.30
2019-05-02T01:31:18.448Z,5.70
2019-05-02T01:34:00.836Z,5.73
2019-05-02T01:36:41.010Z,5.70
2019-05-02T01:39:11.553Z,5.43
2019-05-02T01:41:42.519Z,5.70
2019-05-02T01:44:13.510Z,6.53
2019-05-02T01:46:44.465Z,6.00
2019-05-02T01:49:16.928Z,5.40
2019-05-02T01:51:49.368Z,5.47
2019-05-02T01:54:20.354Z,5.90
2019-05-02T01:56:51.309Z,5.10
2019-05-02T01:59:23.327Z,5.10
2019-05-02T02:01:57.926Z,5.50
2019-05-02T02:04:27.049Z,6.30
2019-05-02T02:06:58.099Z,5.67
2019-05-02T02:09:29.217Z,5.80
2019-05-02T02:12:05.027Z,5.83
2019-05-02T02:14:33.378Z,5.30
2019-05-02T02:17:04.413Z,5.80
2019-05-02T02:19:53.644Z,6.07
2019-05-02T02:22:38.606Z,5.10
2019-05-02T02:25:25.201Z,5.03
2019-05-02T02:27:59.601Z,5.57
2019-05-02T02:30:28.994Z,6.23
2019-05-02T02:33:07.710Z,5.60
2019-05-02T02:35:34.052Z,5.60
2019-05-02T02:38:05.295Z,5.93
2019-05-02T02:40:36.261Z,5.30
2019-05-02T02:43:22.458Z,5.80
2019-05-02T02:45:51.921Z,5.63
2019-05-02T02:48:22.495Z,4.90
2019-05-02T02:50:53.527Z,5.90
2019-05-02T02:53:33.710Z,6.17
2019-05-02T02:56:07.324Z,5.27
2019-05-02T02:58:45.223Z,5.70
2019-05-02T03:01:11.339Z,5.80
2019-05-02T03:03:42.605Z,6.10
2019-05-02T03:06:13.578Z,5.20
2019-05-02T03:08:48.659Z,5.80
2019-05-02T03:11:23.523Z,5.40
2019-05-02T03:14:09.579Z,5.50
2019-05-02T03:16:47.472Z,6.90
2019-05-02T03:19:14.727Z,5.77
2019-05-02T03:22:04.561Z,5.77
2019-05-02T03:24:36.419Z,5.73
2019-05-02T03:27:08.494Z,6.00
2019-05-02T03:29:43.859Z,5.93
2019-05-02T03:32:16.951Z,5.83
2019-05-02T03:34:48.438Z,5.17
2019-05-02T03:37:17.968Z,5.47
2019-05-02T03:39:56.549Z,5.60
2019-05-02T03:42:21.831Z,6.13
2019-05-02T03:44:56.345Z,6.27
2019-05-02T03:47:26.721Z,5.63
2019-05-02T03:49:58.346Z,5.50
2019-05-02T03:52:29.533Z,5.63
2019-05-02T03:55:00.637Z,5.93
2019-05-02T03:57:35.707Z,5.30
2019-05-02T04:00:06.114Z,5.93
2019-05-02T04:02:38.121Z,6.20
2019-05-02T04:05:09.532Z,6.30
2019-05-02T04:07:42.324Z,5.70
2019-05-02T04:10:20.227Z,5.40
2019-05-02T04:12:53.059Z,5.60
2019-05-02T04:15:28.828Z,5.73
2019-05-02T04:17:57.304Z,5.37
2019-05-02T04:20:28.658Z,6.53
2019-05-02T04:23:01.632Z,6.20
2019-05-02T04:25:35.438Z,5.60
2019-05-02T04:28:12.078Z,6.50
2019-05-02T04:30:45.089Z,6.60
2019-05-02T04:33:13.057Z,5.93
2019-05-02T04:35:44.308Z,6.23
2019-05-02T04:38:21.451Z,5.60
2019-05-02T04:40:49.508Z,6.20
2019-05-02T04:43:20.921Z,6.53
2019-05-02T04:45:56.404Z,5.60
2019-05-02T04:48:24.630Z,5.63
2019-05-02T04:51:01.980Z,5.40
2019-05-02T04:55:08.366Z,5.67
2019-05-02T04:57:36.607Z,4.83
2019-05-02T05:00:08.598Z,5.77
2019-05-02T05:02:39.343Z,5.10
2019-05-02T05:05:08.361Z,5.13
2019-05-02T05:07:45.822Z,5.93
2019-05-02T05:10:13.149Z,6.63
2019-05-02T05:12:44.123Z,5.20
2019-05-02T05:15:33.844Z,5.10
2019-05-02T05:17:49.974Z,5.50
2019-05-02T05:20:20.647Z,5.87
2019-05-02T05:22:51.697Z,5.63
2019-05-02T05:25:28.620Z,5.40
2019-05-02T05:28:05.658Z,5.47
2019-05-02T05:30:32.338Z,5.13
2019-05-02T05:33:03.382Z,4.87
2019-05-02T05:35:34.398Z,5.10
2019-05-02T05:38:07.622Z,5.23
2019-05-02T05:40:38.228Z,5.47
2019-05-02T05:43:14.424Z,4.90
2019-05-02T05:45:53.591Z,5.47
2019-05-02T05:48:14.702Z,5.67
2019-05-02T05:50:47.651Z,5.47
2019-05-02T05:53:21.353Z,5.50
2019-05-02T05:55:53.672Z,5.30
2019-05-02T05:58:23.885Z,4.70
2019-05-02T06:00:56.518Z,4.70
2019-05-02T06:03:27.847Z,4.90
2019-05-02T06:05:59.026Z,4.83
2019-05-02T06:08:30.079Z,4.90
2019-05-02T06:11:01.130Z,4.87
2019-05-02T06:13:32.099Z,6.00
2019-05-02T06:16:03.611Z,4.70
2019-05-02T06:18:36.429Z,4.73
2019-05-02T06:21:08.795Z,4.80
2019-05-02T06:23:41.521Z,5.30
2019-05-02T06:26:13.545Z,4.20
2019-05-02T06:28:45.320Z,5.20
2019-05-02T06:31:17.241Z,4.70
2019-05-02T06:33:49.251Z,4.70
2019-05-02T06:36:20.423Z,4.60
2019-05-02T06:38:52.329Z,7.73
2019-05-02T06:41:24.278Z,7.13
2019-05-02T06:43:56.318Z,6.80
2019-05-02T06:46:29.538Z,4.90
2019-05-02T06:49:00.091Z,4.60
2019-05-02T06:51:31.080Z,4.23
2019-05-02T06:54:02.052Z,5.30
2019-05-02T06:56:34.100Z,7.50
2019-05-02T06:59:05.275Z,9.80
2019-05-02T07:01:37.599Z,5.27
2019-05-02T07:04:08.751Z,10.23
2019-05-02T07:06:56.303Z,5.43
2019-05-02T07:09:12.803Z,5.30
2019-05-02T07:11:56.646Z,5.60
2019-05-02T07:14:18.594Z,5.50
2019-05-02T07:17:14.759Z,6.20
2019-05-02T07:19:48.313Z,5.90
2019-05-02T07:22:19.286Z,5.73
2019-05-02T07:24:50.418Z,5.63
2019-05-02T07:27:21.465Z,6.20
2019-05-02T07:29:57.685Z,4.93
2019-05-02T07:32:26.781Z,5.70
2019-05-02T07:34:57.752Z,4.90
2019-05-02T07:37:28.825Z,5.57
2019-05-02T07:39:59.788Z,5.67
2019-05-02T07:42:30.764Z,6.30
2019-05-02T07:45:04.301Z,5.90
2019-05-02T07:47:40.185Z,7.97
2019-05-02T07:50:10.276Z,6.83
2019-05-02T07:52:41.344Z,6.00
2019-05-02T07:55:13.353Z,6.07
2019-05-02T07:57:44.340Z,6.30
2019-05-02T08:00:16.839Z,5.73
2019-05-02T08:02:47.910Z,6.50
2019-05-02T08:05:21.643Z,7.43
2019-05-02T08:07:53.278Z,8.10
2019-05-02T08:10:24.998Z,6.87
2019-05-02T08:12:56.047Z,7.50
2019-05-02T08:15:28.066Z,7.00
2019-05-02T08:17:59.061Z,7.80
2019-05-02T08:20:30.053Z,7.60
2019-05-02T08:23:01.072Z,7.57
2019-05-02T08:25:32.139Z,7.47
2019-05-02T08:28:17.918Z,7.50
2019-05-02T08:30:53.049Z,8.03
2019-05-02T08:33:24.038Z,7.67
2019-05-02T08:35:55.192Z,7.00
2019-05-02T08:38:26.195Z,8.17
2019-05-02T08:40:57.195Z,7.33
2019-05-02T08:43:28.345Z,7.33
2019-05-02T08:45:59.358Z,6.63
2019-05-02T08:48:30.347Z,6.37
2019-05-02T08:51:01.422Z,7.20
2019-05-02T08:53:32.618Z,6.93
2019-05-02T08:56:03.687Z,7.80
2019-05-02T08:58:34.664Z,7.37
2019-05-02T09:01:09.252Z,7.33
2019-05-02T09:03:54.716Z,7.10
2019-05-02T09:06:11.334Z,7.53
2019-05-02T09:08:46.139Z,7.70
2019-05-02T09:11:15.865Z,6.73
2019-05-02T09:13:46.943Z,7.20
2019-05-02T09:16:23.644Z,6.53
2019-05-02T09:18:53.931Z,7.40
2019-05-02T09:21:26.823Z,7.40
2019-05-02T09:23:56.146Z,6.97
2019-05-02T09:26:37.795Z,6.30
2019-05-02T09:29:01.708Z,6.47
2019-05-02T09:31:36.675Z,7.37
2019-05-02T09:34:05.575Z,6.93
2019-05-02T09:36:38.185Z,7.37
2019-05-02T09:39:11.760Z,6.63
2019-05-02T09:41:42.150Z,6.47
2019-05-02T09:44:18.595Z,7.03
2019-05-02T09:46:47.387Z,6.87
2019-05-02T09:49:21.900Z,6.70
2019-05-02T09:51:59.147Z,7.23
2019-05-02T09:54:25.158Z,7.23
2019-05-02T09:56:56.189Z,6.83
2019-05-02T09:59:33.549Z,6.83
2019-05-02T10:02:08.024Z,6.90
2019-05-02T10:04:42.120Z,6.30
2019-05-02T10:07:15.195Z,6.77
2019-05-02T10:09:45.493Z,8.20
2019-05-02T10:12:16.500Z,7.70
2019-05-02T10:14:47.490Z,6.73
2019-05-02T10:17:18.648Z,7.20
2019-05-02T10:19:54.953Z,7.17
2019-05-02T10:22:23.809Z,6.60
2019-05-02T10:24:55.280Z,6.50
2019-05-02T10:27:26.447Z,6.90
2019-05-02T10:30:08.113Z,6.57
2019-05-02T10:32:32.437Z,7.63
2019-05-02T10:35:03.587Z,6.87
2019-05-02T10:37:38.243Z,6.80
2019-05-02T10:40:12.718Z,6.40
2019-05-02T10:42:41.955Z,6.43
2019-05-02T10:45:16.704Z,7.80
2019-05-02T10:47:47.476Z,6.40
2019-05-02T10:50:23.215Z,7.40
2019-05-02T10:52:54.296Z,6.37
2019-05-02T10:55:25.528Z,6.70
2019-05-02T10:57:56.484Z,6.00
2019-05-02T11:00:33.977Z,6.10
2019-05-02T11:03:12.122Z,7.30
2019-05-02T11:05:45.708Z,8.27
2019-05-02T11:08:16.732Z,6.80
2019-05-02T11:10:47.785Z,6.77
2019-05-02T11:13:28.972Z,6.23
2019-05-02T11:16:18.955Z,6.67
2019-05-02T11:19:13.113Z,6.50
2019-05-02T11:21:55.520Z,7.07
2019-05-02T11:24:17.094Z,6.43
2019-05-02T11:26:48.180Z,6.10
2019-05-02T11:29:19.178Z,6.73
2019-05-02T11:31:52.018Z,6.83
2019-05-02T11:34:22.924Z,6.30
2019-05-02T11:36:53.914Z,5.87
2019-05-02T11:39:33.285Z,5.80
2019-05-02T11:41:57.739Z,5.20
2019-05-02T11:44:28.861Z,4.83
2019-05-02T11:47:01.818Z,5.50
2019-05-02T11:49:32.602Z,4.60
2019-05-02T11:52:04.661Z,4.70
2019-05-02T11:54:39.264Z,4.40
2019-05-02T11:57:08.443Z,3.97
2019-05-02T11:59:39.450Z,4.60
2019-05-02T12:02:28.440Z,4.77
2019-05-02T12:04:59.482Z,3.93
2019-05-02T12:07:32.343Z,3.90
2019-05-02T12:10:04.723Z,3.70
2019-05-02T12:12:36.359Z,3.40
2019-05-02T12:15:09.525Z,4.07
2019-05-02T12:17:41.975Z,4.10
2019-05-02T12:20:13.269Z,3.97
2019-05-02T12:22:44.395Z,3.70
2019-05-02T12:25:15.495Z,4.73
2019-05-02T12:27:47.738Z,4.23
2019-05-02T12:30:19.097Z,3.87
2019-05-02T12:32:53.128Z,3.93
2019-05-02T12:35:24.419Z,3.93
2019-05-02T12:37:55.435Z,4.53
2019-05-02T12:40:26.765Z,4.13
2019-05-02T12:42:57.739Z,3.57
2019-05-02T12:45:28.919Z,4.13
2019-05-02T12:48:02.402Z,4.07
2019-05-02T12:50:33.118Z,3.90
2019-05-02T12:53:04.189Z,2.87
2019-05-02T12:58:21.857Z,3.20
2019-05-02T13:00:53.272Z,3.20
2019-05-02T13:03:44.397Z,3.50
2019-05-02T13:06:15.561Z,4.90
2019-05-02T13:08:49.084Z,3.60
2019-05-02T13:11:49.198Z,3.53
2019-05-02T13:14:24.093Z,4.00
2019-05-02T13:17:01.194Z,3.50
2019-05-02T13:19:38.001Z,4.00
2019-05-02T13:22:29.158Z,3.03
2019-05-02T13:25:10.497Z,8.33
2019-05-02T13:27:47.516Z,8.60
2019-05-02T13:30:46.786Z,3.30
2019-05-02T13:33:34.375Z,3.93
2019-05-02T13:36:02.504Z,3.33
2019-05-02T13:38:33.777Z,2.70
2019-05-02T13:41:05.123Z,4.47
2019-05-02T13:43:43.589Z,4.60
2019-05-02T13:46:19.084Z,3.53
2019-05-02T13:48:50.085Z,3.30
2019-05-02T13:51:22.341Z,3.50
2019-05-02T13:54:02.243Z,4.40
2019-05-02T13:56:52.355Z,2.83
2019-05-02T13:59:23.184Z,3.27
2019-05-02T14:01:55.184Z,6.40
2019-05-02T14:04:26.314Z,3.10
2019-05-02T14:06:57.431Z,3.30
2019-05-02T14:09:50.910Z,2.77
2019-05-02T14:12:53.272Z,3.03
2019-05-02T14:15:27.126Z,2.50
2019-05-02T14:17:58.305Z,2.83
2019-05-02T14:20:29.429Z,2.87
2019-05-02T14:23:02.195Z,2.37
2019-05-02T14:25:33.179Z,2.47
2019-05-02T14:28:04.175Z,2.97
2019-05-02T14:30:39.506Z,2.80
2019-05-02T14:33:13.965Z,2.47
2019-05-02T14:35:45.147Z,2.73
2019-05-02T14:38:16.963Z,3.70
2019-05-02T14:41:19.306Z,2.50
2019-05-02T14:43:54.243Z,2.00
2019-05-02T14:46:37.415Z,3.03
2019-05-02T14:48:59.727Z,2.77
2019-05-02T14:51:33.092Z,2.90
2019-05-02T14:54:08.113Z,2.80
2019-05-02T14:57:02.098Z,2.97
2019-05-02T14:59:33.227Z,2.90
2019-05-02T15:02:07.871Z,3.20
2019-05-02T15:04:44.609Z,3.40
2019-05-02T15:07:12.953Z,2.90
2019-05-02T15:09:44.375Z,3.30
2019-05-02T15:12:18.844Z,3.37
2019-05-02T15:14:49.270Z,2.67
2019-05-02T15:17:22.667Z,3.40
2019-05-02T15:19:53.632Z,3.53
2019-05-02T15:22:27.609Z,3.13
2019-05-02T15:24:57.473Z,2.90
2019-05-02T15:27:39.346Z,3.40
2019-05-02T15:30:06.896Z,3.20
2019-05-02T15:32:44.899Z,3.17
2019-05-02T15:35:35.895Z,3.23
2019-05-02T15:38:06.973Z,2.93
2019-05-02T15:40:47.170Z,2.90
2019-05-02T15:43:12.608Z,2.90
2019-05-02T15:45:45.436Z,3.40
2019-05-02T15:48:22.499Z,3.37
2019-05-02T15:50:52.970Z,3.77
2019-05-02T15:53:32.552Z,3.40
2019-05-02T15:56:03.883Z,3.37
2019-05-02T15:58:35.013Z,3.83
2019-05-02T16:01:17.193Z,3.30
2019-05-02T16:03:50.050Z,4.17
2019-05-02T16:06:25.850Z,3.83
2019-05-02T16:08:53.933Z,4.50
2019-05-02T16:11:25.234Z,4.83
2019-05-02T16:13:56.384Z,4.17
2019-05-02T16:16:27.503Z,4.50
2019-05-02T16:18:58.657Z,4.80
2019-05-02T16:22:06.273Z,5.43
2019-05-02T16:24:33.848Z,7.93
2019-05-02T16:27:04.972Z,4.83
2019-05-02T16:29:36.052Z,5.50
2019-05-02T16:32:30.841Z,4.50
2019-05-02T16:35:12.162Z,4.80
2019-05-02T16:37:37.953Z,4.50
2019-05-02T16:40:12.043Z,6.30
2019-05-02T16:42:43.140Z,6.67
2019-05-02T16:45:15.208Z,8.57
2019-05-02T16:47:49.749Z,4.40
2019-05-02T16:50:19.937Z,5.07
2019-05-02T16:52:53.042Z,5.97
2019-05-02T16:55:26.704Z,9.23
2019-05-02T16:58:02.968Z,5.37
2019-05-02T17:00:32.023Z,5.10
2019-05-02T17:03:03.848Z,5.00
2019-05-02T17:05:39.492Z,5.10
2019-05-02T17:08:22.536Z,5.00
2019-05-02T17:11:01.859Z,4.57
2019-05-02T17:13:35.644Z,5.50
2019-05-02T17:16:13.178Z,5.60
2019-05-02T17:18:38.511Z,5.37
2019-05-02T17:21:09.500Z,5.23
2019-05-02T17:23:42.952Z,5.30
2019-05-02T17:26:13.222Z,5.57
2019-05-02T17:28:47.127Z,5.93
2019-05-02T17:31:20.556Z,5.33
2019-05-02T17:33:50.943Z,6.93
2019-05-02T17:36:28.708Z,7.10
2019-05-02T17:38:59.400Z,6.83
2019-05-02T17:41:28.178Z,6.57
2019-05-02T17:43:59.228Z,6.97
2019-05-02T17:46:30.166Z,6.97
2019-05-02T17:49:02.544Z,7.67
2019-05-02T17:52:05.309Z,6.20
2019-05-02T17:54:29.482Z,6.27
2019-05-02T17:57:02.159Z,6.33
2019-05-02T17:59:37.487Z,6.90
2019-05-02T18:02:11.531Z,7.00
2019-05-02T18:04:39.424Z,7.73
2019-05-02T18:07:11.681Z,7.50
2019-05-02T18:09:42.927Z,7.70
2019-05-02T18:12:16.237Z,8.27
2019-05-02T18:14:46.716Z,9.70
2019-05-02T18:17:17.826Z,8.40
2019-05-02T18:19:48.817Z,7.97
2019-05-02T18:22:24.155Z,8.10
2019-05-02T18:24:52.796Z,8.53
2019-05-02T18:27:24.087Z,7.90
2019-05-02T18:29:55.141Z,7.67
2019-05-02T18:32:26.318Z,7.37
2019-05-02T18:35:02.494Z,8.10
2019-05-02T18:37:32.486Z,7.43
2019-05-02T18:40:03.475Z,7.40
2019-05-02T18:42:34.532Z,8.33
2019-05-02T18:45:09.200Z,7.97
2019-05-02T18:47:41.795Z,8.67
2019-05-02T18:50:36.847Z,7.43
2019-05-02T18:53:08.296Z,7.00
2019-05-02T18:55:39.817Z,8.07
2019-05-02T18:58:12.858Z,7.30
2019-05-02T19:00:44.206Z,5.90
2019-05-02T19:03:17.230Z,5.70
2019-05-02T19:05:51.519Z,7.23
2019-05-02T19:08:30.535Z,7.00
2019-05-02T19:11:04.978Z,5.97
2019-05-02T19:13:29.992Z,5.40
2019-05-02T19:16:02.035Z,6.70
2019-05-02T19:18:33.220Z,5.97
2019-05-02T19:21:05.562Z,5.40
2019-05-02T19:23:37.444Z,5.50
2019-05-02T19:26:12.495Z,6.60
2019-05-02T19:28:56.535Z,6.00
2019-05-02T19:31:36.643Z,6.33
2019-05-02T19:34:05.416Z,6.70
2019-05-02T19:36:36.563Z,7.13
2019-05-02T19:39:09.890Z,5.70
2019-05-02T19:41:44.355Z,6.77
2019-05-02T19:44:15.367Z,7.50
2019-05-02T19:46:46.802Z,6.50
2019-05-02T19:49:17.997Z,7.30
2019-05-02T19:51:50.344Z,7.07
2019-05-02T19:54:22.037Z,6.10
2019-05-02T19:56:53.134Z,6.63
2019-05-02T19:59:26.395Z,7.10
2019-05-02T20:02:02.489Z,5.77
2019-05-02T20:04:32.605Z,6.40
2019-05-02T20:07:03.253Z,5.80
2019-05-02T20:09:38.090Z,6.37
2019-05-02T20:12:09.619Z,6.00
2019-05-02T20:14:45.773Z,6.23
2019-05-02T20:17:20.326Z,6.17
2019-05-02T20:19:52.878Z,5.60
2019-05-02T20:22:24.106Z,5.73
2019-05-02T20:25:01.146Z,6.57
2019-05-02T20:27:33.038Z,6.00
2019-05-02T20:30:04.963Z,6.50
2019-05-02T20:32:36.486Z,6.67
2019-05-02T20:35:08.505Z,6.87
2019-05-02T20:37:39.564Z,7.37
2019-05-02T20:40:26.759Z,8.40
2019-05-02T20:42:57.908Z,9.60
2019-05-02T20:45:29.254Z,10.00
2019-05-02T20:48:02.064Z,11.37
2019-05-02T20:50:33.096Z,10.73
2019-05-02T20:53:05.545Z,11.93
2019-05-02T20:55:37.908Z,13.87
2019-05-02T20:58:09.060Z,14.23
2019-05-02T21:00:42.582Z,16.27
2019-05-02T21:03:14.447Z,17.30
2019-05-02T21:06:02.219Z,14.07
2019-05-02T21:08:46.545Z,15.70
2019-05-02T21:11:17.614Z,13.43
2019-05-02T21:13:48.589Z,11.87
2019-05-02T21:16:21.710Z,10.50
2019-05-02T21:18:52.352Z,11.40
2019-05-02T21:21:24.783Z,10.20
2019-05-02T21:23:55.763Z,9.40
2019-05-02T21:26:27.745Z,9.63
2019-05-02T21:28:58.793Z,9.40
2019-05-02T21:31:31.794Z,7.97
2019-05-02T21:34:02.697Z,8.47
2019-05-02T21:36:33.671Z,7.97
2019-05-02T21:39:07.577Z,8.53
2019-05-02T21:41:38.705Z,6.90
2019-05-02T21:44:09.685Z,6.40
2019-05-02T21:46:42.331Z,7.97
2019-05-02T21:49:16.033Z,7.53
2019-05-02T21:52:05.986Z,9.10
2019-05-02T21:54:44.196Z,8.63
2019-05-02T21:57:17.688Z,8.10
2019-05-02T21:59:48.705Z,7.20
2019-05-02T22:02:22.585Z,7.60
2019-05-02T22:04:53.764Z,7.03
2019-05-02T22:07:24.855Z,6.50
2019-05-02T22:09:55.834Z,6.63
2019-05-02T22:12:27.066Z,6.60
2019-05-02T22:14:58.029Z,6.20
2019-05-02T22:17:29.078Z,5.80
2019-05-02T22:20:01.845Z,5.80
2019-05-02T22:22:34.405Z,6.03
2019-05-02T22:25:06.514Z,6.60
2019-05-02T22:27:37.538Z,5.87
2019-05-02T22:30:09.183Z,5.30
2019-05-02T22:32:40.212Z,5.77
2019-05-02T22:35:12.216Z,6.57
2019-05-02T22:37:46.150Z,6.10
2019-05-02T22:40:17.819Z,7.00
2019-05-02T22:42:48.829Z,6.50
2019-05-02T22:45:21.675Z,6.27
2019-05-02T22:47:52.757Z,6.63
2019-05-02T22:50:23.776Z,7.43
2019-05-02T22:52:54.776Z,5.87
2019-05-02T22:55:25.761Z,5.47
2019-05-02T22:57:56.762Z,5.00
2019-05-02T23:00:28.099Z,5.53
2019-05-02T23:02:59.105Z,5.93
2019-05-02T23:05:32.111Z,6.10
2019-05-02T23:08:02.913Z,5.13
2019-05-02T23:10:34.970Z,4.67
2019-05-02T23:13:06.303Z,5.70
2019-05-02T23:15:37.418Z,5.30
2019-05-02T23:18:08.413Z,5.20
2019-05-02T23:20:39.363Z,4.43
2019-05-02T23:23:12.405Z,4.27
2019-05-02T23:26:07.239Z,5.20
2019-05-02T23:28:40.088Z,4.50
2019-05-02T23:31:14.086Z,3.40
2019-05-02T23:33:59.291Z,3.60
2019-05-02T23:36:32.555Z,2.20
2019-05-02T23:39:05.271Z,2.40
2019-05-02T23:41:36.406Z,2.23
2019-05-02T23:44:07.547Z,1.60
2019-05-02T23:46:38.592Z,2.07
2019-05-02T23:49:09.653Z,1.87
2019-05-02T23:51:42.510Z,1.67
2019-05-02T23:54:13.417Z,1.90
2019-05-02T23:56:44.549Z,1.53
2019-05-02T23:59:15.583Z,2.03
